Terminal Aerodrome Forecast
Issued by NWS Grand Forks, ND

Home | Current Version | Previous Version | Text Only | Print | Product List | Glossary Off
Versions: 1 2 3 4 5 6 7 8 9 10 11 12 13 14 15 16 17 18 19

600
FTUS43 KFGF 032339
TAFFAR
TAF
KFAR 032339Z 0400/0424 25006KT P6SM BKN060
     FM040100 28010KT 3SM -SN BKN025
     FM040300 26006KT P6SM BKN030
     FM040700 28007KT 4SM -SN BKN025
     FM041200 29005KT P6SM BKN020=

USA.gov is the U.S. government's official web portal to all federal, state and local government web resources and services.